TimePDT,TemperatureF,Dew PointF,Humidity,Sea Level PressureIn,VisibilityMPH,Wind Direction,Wind SpeedMPH,Gust SpeedMPH,PrecipitationIn,Events,Conditions,WindDirDegrees,DateUTC
12:53 AM,80.1,52.0,38,29.69,9.0,NW,4.6,-,N/A,,Scattered Clouds,320,2013-09-10 07:53:00
1:53 AM,78.1,53.1,42,29.69,10.0,WNW,4.6,-,N/A,,Scattered Clouds,300,2013-09-10 08:53:00
2:53 AM,77.0,55.0,47,29.69,10.0,Calm,Calm,-,N/A,,Scattered Clouds,0,2013-09-10 09:53:00
3:53 AM,75.9,54.0,46,29.69,10.0,Calm,Calm,-,N/A,,Scattered Clouds,0,2013-09-10 10:53:00
4:53 AM,73.9,55.0,52,29.69,10.0,Calm,Calm,-,N/A,,Scattered Clouds,0,2013-09-10 11:53:00
5:53 AM,75.0,54.0,48,29.70,10.0,NE,3.5,-,N/A,,Scattered Clouds,50,2013-09-10 12:53:00
6:53 AM,73.9,54.0,50,29.72,9.0,Calm,Calm,-,N/A,,Mostly Cloudy,0,2013-09-10 13:53:00
7:53 AM,75.0,53.1,46,29.74,9.0,ESE,4.6,-,N/A,,Partly Cloudy,120,2013-09-10 14:53:00
8:53 AM,78.1,55.9,46,29.76,6.0,ESE,6.9,-,N/A,,Smoke,120,2013-09-10 15:53:00
9:53 AM,82.9,54.0,37,29.76,7.0,SSE,4.6,-,N/A,,Clear,150,2013-09-10 16:53:00
10:53 AM,86.0,54.0,33,29.76,8.0,Variable,4.6,-,N/A,,Clear,0,2013-09-10 17:53:00
11:53 AM,90.0,52.0,27,29.76,9.0,SSE,4.6,-,N/A,,Clear,160,2013-09-10 18:53:00
12:53 PM,95.0,44.1,17,29.75,10.0,SSW,4.6,-,N/A,,Clear,210,2013-09-10 19:53:00
1:53 PM,97.0,41.0,14,29.73,10.0,Variable,3.5,-,N/A,,Partly Cloudy,0,2013-09-10 20:53:00
2:53 PM,100.0,39.0,12,29.72,10.0,Variable,6.9,-,N/A,,Partly Cloudy,0,2013-09-10 21:53:00
3:53 PM,100.9,39.0,12,29.71,10.0,West,8.1,-,N/A,,Scattered Clouds,260,2013-09-10 22:53:00
4:53 PM,99.0,34.0,10,29.72,10.0,WNW,9.2,-,N/A,,Scattered Clouds,300,2013-09-10 23:53:00
5:53 PM,98.1,36.0,11,29.73,10.0,NNW,4.6,-,N/A,,Scattered Clouds,330,2013-09-11 00:53:00
6:53 PM,95.0,42.8,16,29.73,10.0,West,8.1,-,N/A,,Scattered Clouds,280,2013-09-11 01:53:00
7:53 PM,91.4,46.4,21,29.74,10.0,West,9.2,-,N/A,,Scattered Clouds,280,2013-09-11 02:53:00
8:53 PM,84.9,53.1,33,29.77,10.0,NW,11.5,-,N/A,,Scattered Clouds,320,2013-09-11 03:53:00
9:53 PM,81.0,50.0,34,29.78,10.0,NW,11.5,-,N/A,,Partly Cloudy,310,2013-09-11 04:53:00
10:53 PM,77.0,51.1,40,29.80,10.0,NW,15.0,-,N/A,,Partly Cloudy,310,2013-09-11 05:53:00
11:53 PM,75.0,53.1,46,29.81,10.0,NW,11.5,-,N/A,,Scattered Clouds,320,2013-09-11 06:53:00